Antler, North Dakota
Current Conditions -  °F | °C
As of 10:58 AM on Sunday 21 Dec 2014 (Local Time) from KMIB Reporting Station
Clear Clear  
Wind Chill: 12°   Ceiling: Unl
Heat Index: 20°   Visibility: 10mi
Dew Point: 20°   Wind: 7mph
Humidity: 99%   Direction: 110°ESE
Pressure: 29.49"   Gusts: NA
Location:  48.97°N, 101.28°W
Report Text: KMIB 211658Z AUTO 11006KT 10SM CLR M06/M07 A2949 RMK AO2 SLP013 T10641066 $
Loading
Personal Weather Stations






























Interactive Weather Map New forecast layout! Learn more

10-Day Weather Forecast

Advertisements
Track Severe Weather on mobile